Paradise, Canada
Current Conditions -  °F | °C
As of 10:00 AM on Thursday 30 Oct 2014 (Local Time) from CYQX Reporting Station
Overcast Overcast  
Wind Chill: 55°   Ceiling: 600
Heat Index: 55°   Visibility: 10mi
Dew Point: 55°   Wind: 13mph
Humidity: 100%   Direction: 180°S
Pressure: 29.63"   Gusts: 21mph
Location:  49.37°N, 55.33°W
Report Text: CYQX 301200Z 18011G18KT 10SM OVC006 13/13 A2963 RMK SF8 PRESFR SLP037 DENSITY ALT 700FT
Loading
Personal Weather Stations






























Interactive Weather Map New forecast layout! Learn more

10-Day Weather Forecast

Advertisements
Track Severe Weather on mobile